Time;durP1;ratioP1;P1;durP2;ratioP2;P2;SDS_P1;SDS_P2;PMS_P1;PMS_P2;Temp;Humidity;BMP_temperature;BMP_pressure;BME280_temperature;BME280_humidity;BME280_pressure;Samples;Min_cycle;Max_cycle;Signal;HPM_P1;HPM_P2
2022/11/06 00:00:08;;;;;;;2.80;1.40;;;;;;;10.56;52.43;94421.22;5061086;28;20060;-95
2022/11/06 00:02:34;;;;;;;4.13;1.52;;;;;;;10.36;53.20;94421.22;5045410;28;20123;-94
2022/11/06 00:06:46;;;;;;;2.92;1.67;;;;;;;10.05;57.57;94424.63;5077766;28;20029;-95
2022/11/06 00:07:48;;;;;;;4.38;2.08;;;;;;;9.92;59.14;94433.00;5055940;28;20033;-93
2022/11/06 00:10:27;;;;;;;5.18;2.17;;;;;;;9.73;60.59;94426.44;5059542;28;20128;-94
2022/11/06 00:12:54;;;;;;;8.00;2.92;;;;;;;8.90;65.94;94431.44;5045135;28;20029;-94
2022/11/06 00:15:32;;;;;;;;;;;;;;;;;;;;;
2022/11/06 00:17:58;;;;;;;5.25;2.30;;;;;;;8.61;69.04;94433.63;5060943;28;20072;-94
2022/11/06 00:20:26;;;;;;;5.22;2.67;;;;;;;8.72;68.14;94422.22;5058885;28;20430;-95
2022/11/06 00:22:54;;;;;;;5.70;2.30;;;;;;;8.48;70.77;94435.63;5058939;28;20098;-94
2022/11/06 00:25:22;;;;;;;5.72;2.70;;;;;;;8.55;69.96;94432.03;5059944;28;20040;-94
2022/11/06 00:27:49;;;;;;;5.43;2.88;;;;;;;8.61;68.79;94424.00;5042909;28;20402;-94
2022/11/06 00:30:22;;;;;;;5.68;2.60;;;;;;;8.64;68.18;94422.69;5059349;28;20029;-94
2022/11/06 00:32:58;;;;;;;;;;;;;;;;;;;;;
2022/11/06 00:35:23;;;;;;;4.10;2.13;;;;;;;8.70;65.52;94421.69;5059905;28;20119;-94
2022/11/06 00:37:59;;;;;;;;;;;;;;;;;;;;;
2022/11/06 00:40:27;;;;;;;6.63;2.63;;;;;;;8.72;68.16;94424.03;5057530;28;20035;-94
2022/11/06 00:43:01;;;;;;;4.57;2.00;;;;;;;8.57;66.21;94419.53;5040572;28;20036;-94
2022/11/06 00:45:26;;;;;;;5.60;2.42;;;;;;;8.60;63.61;94421.63;5057817;28;20094;-95
2022/11/06 00:48:01;;;;;;;;;;;;;;;;;;;;;
2022/11/06 00:50:29;;;;;;;6.75;2.75;;;;;;;8.42;65.93;94417.56;5057745;28;20028;-94
2022/11/06 00:52:55;;;;;;;5.82;2.33;;;;;;;8.43;66.12;94419.13;5058200;28;20031;-94
2022/11/06 00:55:20;;;;;;;4.25;2.25;;;;;;;8.35;68.13;94420.38;5058838;28;20025;-94
2022/11/06 00:57:48;;;;;;;5.18;2.28;;;;;;;8.31;64.86;94420.09;5057789;28;20124;-94
2022/11/06 01:00:16;;;;;;;4.40;1.98;;;;;;;8.41;65.93;94423.81;5058139;28;20344;-94
2022/11/06 01:02:46;;;;;;;5.70;2.10;;;;;;;8.38;65.29;94424.34;5058458;28;20440;-94
2022/11/06 01:05:22;;;;;;;;;;;;;;;;;;;;;
2022/11/06 01:07:48;;;;;;;6.15;2.20;;;;;;;8.53;63.65;94442.72;5058453;28;20035;-94
2022/11/06 01:10:24;;;;;;;;;;;;;;;;;;;;;
2022/11/06 01:12:49;;;;;;;2.83;1.70;;;;;;;8.54;63.57;94446.91;5058682;28;20035;-95
2022/11/06 01:15:25;;;;;;;;;;;;;;;;;;;;;
2022/11/06 01:18:03;;;;;;;;;;;;;;;;;;;;;
2022/11/06 01:22:58;;;;;;;4.00;1.73;;;;;;;9.59;57.95;94447.09;5055497;28;20064;-89
2022/11/06 01:25:31;;;;;;;5.82;1.90;;;;;;;9.80;56.75;94447.13;5023064;28;20033;-90
2022/11/06 01:27:59;;;;;;;5.28;2.10;;;;;;;9.73;56.79;94447.38;5036220;28;20492;-90
2022/11/06 01:30:25;;;;;;;3.13;1.50;;;;;;;9.79;56.30;94437.69;5033114;28;20091;-90
2022/11/06 01:32:50;;;;;;;4.85;1.75;;;;;;;10.00;55.76;94448.19;5049848;28;20029;-90
2022/11/06 01:35:16;;;;;;;3.45;1.60;;;;;;;10.09;54.84;94451.06;5046890;28;20086;-90
2022/11/06 01:37:41;;;;;;;3.20;1.45;;;;;;;10.22;55.02;94455.78;5032781;28;20035;-90
2022/11/06 01:40:09;;;;;;;3.83;2.03;;;;;;;10.17;54.93;94456.56;5042481;28;20029;-90
2022/11/06 01:42:35;;;;;;;3.42;1.70;;;;;;;10.19;54.63;94453.72;5077224;28;20029;-88
2022/11/06 01:45:07;;;;;;;4.22;1.75;;;;;;;10.24;54.63;94458.13;5042885;28;20043;-88
2022/11/06 01:47:32;;;;;;;2.95;1.63;;;;;;;10.19;54.49;94456.31;5059119;28;20036;-90
2022/11/06 01:50:05;;;;;;;6.10;1.92;;;;;;;10.19;54.56;94451.84;5042429;28;20028;-88
2022/11/06 01:52:32;;;;;;;4.22;1.85;;;;;;;10.13;55.60;94450.31;5042702;28;20020;-88
2022/11/06 01:55:06;;;;;;;4.15;1.98;;;;;;;10.02;56.00;94454.72;5042948;28;20017;-90
2022/11/06 01:57:31;;;;;;;5.50;1.73;;;;;;;9.82;56.13;94454.72;5042575;28;20336;-90
2022/11/06 02:00:00;;;;;;;3.38;1.65;;;;;;;9.83;55.46;94451.06;5042665;28;20020;-91
2022/11/06 02:02:25;;;;;;;4.93;2.03;;;;;;;9.78;55.29;94443.22;5042313;28;20387;-91
2022/11/06 02:04:50;;;;;;;5.38;1.85;;;;;;;9.81;55.15;94437.44;5042486;28;20313;-89
2022/11/06 02:07:17;;;;;;;3.75;1.50;;;;;;;9.65;56.46;94437.44;5042789;28;20021;-89
2022/11/06 02:09:43;;;;;;;3.22;1.50;;;;;;;9.56;56.94;94436.34;5042774;28;20040;-89
2022/11/06 02:12:20;;;;;;;3.38;1.52;;;;;;;9.23;61.14;94436.53;5042493;28;20020;-89
2022/11/06 02:15:16;;;;;;;5.28;2.33;;;;;;;8.69;65.61;94432.38;5059034;28;20028;-89
2022/11/06 02:18:00;;;;;;;3.88;1.85;;;;;;;8.45;71.66;94438.75;5042678;28;20048;-89
2022/11/06 02:20:37;;;;;;;3.88;1.90;;;;;;;8.09;74.04;94427.25;5058688;28;20071;-88
2022/11/06 02:23:20;;;;;;;3.03;1.75;;;;;;;8.35;71.29;94426.41;5042478;28;20044;-91
2022/11/06 02:26:17;;;;;;;5.45;2.22;;;;;;;7.83;74.63;94424.44;5059271;28;20086;-90
2022/11/06 02:28:52;;;;;;;6.10;2.40;;;;;;;8.00;75.98;94424.34;5030898;28;20051;-91
2022/11/06 02:31:34;;;;;;;3.65;1.60;;;;;;;8.26;75.00;94429.75;5058446;28;20102;-91
2022/11/06 02:34:03;;;;;;;5.22;2.10;;;;;;;8.27;76.74;94423.50;5044850;28;20429;-91
2022/11/06 02:36:32;;;;;;;6.20;2.65;;;;;;;8.28;75.83;94420.59;5045894;28;20119;-91
2022/11/06 02:39:00;;;;;;;4.93;1.92;;;;;;;8.30;77.49;94418.53;5045765;28;20447;-91
2022/11/06 02:41:30;;;;;;;4.00;2.10;;;;;;;8.14;76.19;94414.25;5062577;28;20396;-91
2022/11/06 02:43:56;;;;;;;6.38;2.33;;;;;;;8.04;76.05;94415.75;5062158;28;20376;-90
2022/11/06 02:46:27;;;;;;;5.15;2.08;;;;;;;8.05;75.48;94422.56;5045434;28;20044;-91
2022/11/06 02:49:00;;;;;;;6.88;2.20;;;;;;;8.06;76.40;94424.13;5045646;28;20035;-91
2022/11/06 02:51:28;;;;;;;4.90;2.00;;;;;;;8.22;74.26;94419.00;5045682;28;20364;-91
2022/11/06 02:53:58;;;;;;;4.57;1.80;;;;;;;8.19;73.89;94427.34;5061895;28;20298;-90
2022/11/06 02:56:26;;;;;;;4.50;1.80;;;;;;;8.12;74.12;94427.56;5045564;28;20032;-91
2022/11/06 02:58:54;;;;;;;6.75;2.10;;;;;;;7.92;75.63;94436.00;5045316;28;20429;-90
2022/11/06 03:01:33;;;;;;;4.50;2.10;;;;;;;8.11;72.47;94440.84;5062287;28;20422;-91
2022/11/06 03:04:15;;;;;;;5.60;2.20;;;;;;;8.23;71.62;94435.44;5045821;28;20028;-92
2022/11/06 03:06:44;;;;;;;3.63;1.90;;;;;;;8.01;72.10;94426.66;5045338;28;20387;-91
2022/11/06 03:09:24;;;;;;;3.50;1.85;;;;;;;8.12;72.44;94437.19;5045570;28;20056;-92
2022/11/06 03:11:55;;;;;;;4.35;1.65;;;;;;;8.27;72.56;94439.91;5045223;28;20025;-91
2022/11/06 03:14:26;;;;;;;4.03;1.90;;;;;;;8.15;72.08;94441.91;5045344;28;20446;-91
2022/11/06 03:17:32;;;;;;;4.28;2.05;;;;;;;8.18;69.94;94446.66;5061696;28;20138;-91
2022/11/06 03:20:07;;;;;;;3.47;1.88;;;;;;;8.37;69.43;94448.88;5051134;28;20040;-90
2022/11/06 03:23:18;;;;;;;5.50;2.00;;;;;;;8.13;72.38;94452.63;5061589;28;20126;-91
2022/11/06 03:25:53;;;;;;;2.42;1.30;;;;;;;8.03;72.52;94453.34;5051601;28;20097;-91
2022/11/06 03:28:28;;;;;;;3.13;1.55;;;;;;;8.11;73.83;94451.28;5044835;28;20032;-91
2022/11/06 03:30:57;;;;;;;4.68;1.70;;;;;;;7.89;74.77;94460.75;5045078;28;20078;-90
2022/11/06 03:33:24;;;;;;;2.90;1.70;;;;;;;7.93;75.64;94459.22;5045085;28;20062;-90
2022/11/06 03:35:54;;;;;;;2.88;1.60;;;;;;;8.04;74.58;94457.50;5061323;28;20025;-91
2022/11/06 03:38:47;;;;;;;3.42;1.77;;;;;;;8.05;73.95;94453.88;5061265;28;20085;-91
2022/11/06 03:41:23;;;;;;;4.03;1.58;;;;;;;7.98;73.90;94447.28;5050588;28;20040;-91
2022/11/06 03:43:53;;;;;;;3.53;1.70;;;;;;;7.90;73.12;94451.13;5044595;28;20082;-91
2022/11/06 03:46:23;;;;;;;2.15;1.30;;;;;;;7.97;74.26;94456.13;5045126;28;20475;-91
2022/11/06 03:48:52;;;;;;;4.68;1.67;;;;;;;8.02;72.83;94449.13;5045025;28;20405;-91
2022/11/06 03:51:57;;;;;;;4.00;1.65;;;;;;;8.02;73.40;94458.78;5044431;28;20028;-90
2022/11/06 03:54:26;;;;;;;3.25;1.55;;;;;;;7.95;72.92;94464.22;4961614;28;20105;-91
2022/11/06 03:57:08;;;;;;;2.35;1.40;;;;;;;7.92;72.68;94467.31;4945999;28;20040;-91
2022/11/06 03:59:41;;;;;;;2.78;1.30;;;;;;;8.04;72.29;94454.91;5005910;28;20036;-91
2022/11/06 04:02:07;;;;;;;2.83;1.45;;;;;;;7.99;74.66;94459.28;5044297;28;20425;-91
2022/11/06 04:04:45;;;;;;;2.05;1.30;;;;;;;8.05;74.93;94464.31;5044392;28;20082;-91
2022/11/06 04:07:23;;;;;;;2.80;1.20;;;;;;;7.93;74.14;94471.50;5060963;28;20074;-92
2022/11/06 04:15:24;;;;;;;2.70;1.55;;;;;;;8.19;70.41;94471.72;5063277;28;20113;-91
2022/11/06 04:17:55;;;;;;;2.63;1.50;;;;;;;8.14;71.28;94477.69;5060675;28;20032;-91
2022/11/06 04:26:34;;;;;;;3.25;1.63;;;;;;;8.21;71.11;94485.31;5063176;28;20090;-91
2022/11/06 04:26:44;;;;;;;1.90;1.15;;;;;;;8.21;70.51;94487.91;4971182;28;20035;-90
2022/11/06 04:29:53;;;;;;;2.75;1.38;;;;;;;8.21;71.28;94482.69;4943675;28;20038;-92
2022/11/06 04:32:51;;;;;;;3.10;1.45;;;;;;;8.06;76.01;94485.94;5030644;28;20087;-92
2022/11/06 04:35:48;;;;;;;2.38;1.33;;;;;;;8.10;74.90;94487.03;4996267;28;20041;-92
2022/11/06 04:38:56;;;;;;;2.38;1.20;;;;;;;8.21;73.14;94493.13;5039499;28;20063;-91
2022/11/06 04:41:43;;;;;;;2.90;1.35;;;;;;;8.13;72.71;94502.19;5023237;28;20041;-91
2022/11/06 04:44:15;;;;;;;5.53;1.42;;;;;;;8.21;72.05;94504.34;5040661;28;20024;-91
2022/11/06 04:46:52;;;;;;;2.95;1.50;;;;;;;8.21;73.47;94506.19;5040255;28;20491;-92
2022/11/06 04:49:19;;;;;;;2.30;1.27;;;;;;;8.18;75.03;94498.84;5039901;28;20040;-91
2022/11/06 04:51:45;;;;;;;3.85;1.27;;;;;;;7.99;75.30;94495.81;5055660;28;20039;-91
2022/11/06 04:54:11;;;;;;;4.40;1.63;;;;;;;7.99;73.05;94496.59;5056144;28;20037;-91
2022/11/06 04:56:37;;;;;;;2.08;1.40;;;;;;;8.09;71.51;94488.06;5039079;28;20052;-91
2022/11/06 04:59:03;;;;;;;3.67;1.40;;;;;;;8.21;73.08;94491.28;5039732;28;20072;-91
2022/11/06 05:01:29;;;;;;;3.33;1.80;;;;;;;7.77;81.08;94488.81;5039732;28;20094;-91
2022/11/06 05:03:55;;;;;;;4.05;1.67;;;;;;;7.87;76.39;94485.50;5056287;28;20028;-91
2022/11/06 05:06:20;;;;;;;3.95;1.30;;;;;;;7.90;74.98;94483.22;5056217;28;20111;-92
2022/11/06 05:08:46;;;;;;;3.40;1.42;;;;;;;7.90;74.73;94485.81;5056166;28;20124;-91
2022/11/06 05:11:12;;;;;;;2.30;1.20;;;;;;;7.89;75.78;94483.44;5055460;28;20064;-91
2022/11/06 05:13:37;;;;;;;3.13;1.40;;;;;;;7.94;74.57;94488.72;5039527;28;20437;-91
2022/11/06 05:16:10;;;;;;;2.20;1.20;;;;;;;7.93;76.47;94489.75;5055999;28;20033;-92
2022/11/06 05:18:38;;;;;;;4.28;1.77;;;;;;;7.93;74.07;94494.97;5040894;28;20087;-91
2022/11/06 05:23:48;;;;;;;7.35;2.05;;;;;;;7.95;74.60;94495.50;5056066;28;20112;-92
2022/11/06 05:26:14;;;;;;;6.18;2.28;;;;;;;8.02;73.99;94496.09;5039408;28;20047;-93
2022/11/06 05:28:39;;;;;;;4.47;1.90;;;;;;;8.13;73.21;94501.41;5039491;28;20064;-92
2022/11/06 05:31:05;;;;;;;5.65;2.45;;;;;;;8.07;74.81;94503.19;5039733;28;20079;-92
2022/11/06 05:33:31;;;;;;;4.03;2.05;;;;;;;8.03;77.62;94500.28;5056197;28;20055;-93
2022/11/06 05:36:01;;;;;;;6.03;2.50;;;;;;;7.95;80.38;94495.50;5055920;28;20036;-92
2022/11/06 05:38:27;;;;;;;6.55;2.13;;;;;;;7.88;80.66;94500.13;5039723;28;20024;-92
2022/11/06 05:40:52;;;;;;;3.65;1.70;;;;;;;7.92;77.13;94498.63;5055873;28;20410;-92
2022/11/06 05:43:17;;;;;;;6.05;2.13;;;;;;;7.69;85.79;94497.88;5039609;28;20021;-92
2022/11/06 05:45:43;;;;;;;6.10;2.03;;;;;;;7.44;86.80;94506.97;5028330;28;20052;-92
2022/11/06 05:48:08;;;;;;;5.88;2.78;;;;;;;7.56;87.49;94493.03;5023013;28;20333;-92
2022/11/06 05:50:34;;;;;;;5.53;2.47;;;;;;;7.53;92.25;94502.16;5039098;28;20354;-92
2022/11/06 05:52:59;;;;;;;4.65;2.20;;;;;;;7.52;87.11;94497.94;5039402;28;20033;-92
2022/11/06 05:55:25;;;;;;;6.45;1.48;;;;;;;7.56;83.10;94496.44;5039246;28;20116;-92
2022/11/06 05:57:50;;;;;;;3.80;1.80;;;;;;;7.62;82.58;94502.50;5039281;28;20028;-91
2022/11/06 06:00:16;;;;;;;3.70;1.63;;;;;;;7.60;82.09;94510.56;5022609;28;20040;-92
2022/11/06 06:02:43;;;;;;;3.95;1.40;;;;;;;7.60;80.70;94505.34;5039134;28;20037;-92
2022/11/06 06:05:11;;;;;;;3.35;1.65;;;;;;;7.61;82.89;94516.56;5021436;28;20052;-92
2022/11/06 06:07:36;;;;;;;2.65;1.40;;;;;;;7.58;84.71;94512.63;5038840;28;20323;-92
2022/11/06 06:10:02;;;;;;;5.03;1.40;;;;;;;7.68;84.80;94519.00;5025452;28;20036;-92
2022/11/06 06:12:28;;;;;;;3.53;1.38;;;;;;;7.66;83.73;94519.22;5023457;28;20025;-92
2022/11/06 06:14:53;;;;;;;4.75;1.90;;;;;;;7.57;85.60;94525.91;5007080;28;20033;-92
2022/11/06 06:17:19;;;;;;;3.33;1.52;;;;;;;7.66;83.07;94523.63;5022974;28;20140;-92
2022/11/06 06:19:45;;;;;;;2.75;1.50;;;;;;;7.84;80.44;94531.16;5039308;28;20446;-92
2022/11/06 06:22:11;;;;;;;4.75;2.17;;;;;;;7.97;81.58;94535.19;5022412;28;20034;-92
2022/11/06 06:24:36;;;;;;;5.95;2.50;;;;;;;7.75;86.48;94543.84;5022674;28;20124;-91
2022/11/06 06:27:02;;;;;;;6.22;2.83;;;;;;;7.72;90.62;94548.75;5022400;28;20040;-91
2022/11/06 06:29:28;;;;;;;7.07;2.85;;;;;;;7.83;90.15;94558.28;5006429;28;20044;-92
2022/11/06 06:31:53;;;;;;;5.95;2.53;;;;;;;8.12;88.67;94552.03;5006223;28;20033;-91
2022/11/06 06:34:19;;;;;;;7.90;3.85;;;;;;;8.27;87.55;94556.63;5022413;28;20109;-91
2022/11/06 06:36:49;;;;;;;7.05;3.15;;;;;;;8.46;87.27;94568.25;5006214;28;20030;-92
2022/11/06 06:39:14;;;;;;;6.15;2.80;;;;;;;8.52;88.13;94576.97;5022374;28;20032;-93
2022/11/06 06:41:40;;;;;;;4.15;2.20;;;;;;;8.60;85.87;94573.88;5005965;28;20030;-92
2022/11/06 06:44:05;;;;;;;6.60;2.92;;;;;;;8.65;84.57;94575.75;5006429;28;20033;-93
2022/11/06 06:46:33;;;;;;;7.28;2.35;;;;;;;8.74;87.97;94576.06;5005600;28;20025;-92
2022/11/06 06:49:09;;;;;;;6.00;2.40;;;;;;;8.93;87.74;94568.63;5022231;28;20500;-92
2022/11/06 06:51:34;;;;;;;5.53;2.40;;;;;;;9.01;85.85;94569.97;5026744;28;20028;-88
2022/11/06 06:54:00;;;;;;;8.15;2.30;;;;;;;9.07;86.80;94571.59;5052424;28;20083;-89
2022/11/06 06:56:25;;;;;;;5.95;2.80;;;;;;;9.13;88.41;94567.97;5039509;28;20020;-88
2022/11/06 06:58:54;;;;;;;4.60;2.20;;;;;;;9.19;87.07;94558.34;5068435;28;20060;-88
2022/11/06 07:01:20;;;;;;;5.65;2.08;;;;;;;9.19;86.40;94563.56;5052230;28;20039;-88
2022/11/06 07:03:46;;;;;;;4.28;2.20;;;;;;;9.22;86.62;94557.06;5049919;28;20341;-88
2022/11/06 07:06:11;;;;;;;4.53;2.08;;;;;;;9.30;86.25;94567.00;5049119;28;20028;-88
2022/11/06 07:08:37;;;;;;;4.82;2.30;;;;;;;9.39;85.72;94568.13;5049594;28;20122;-88
2022/11/06 07:11:07;;;;;;;3.90;2.00;;;;;;;9.53;92.93;94567.66;5035315;28;20028;-88
2022/11/06 07:13:33;;;;;;;4.30;2.17;;;;;;;9.45;98.99;94576.78;5034150;28;20493;-88
2022/11/06 07:16:01;;;;;;;3.50;1.67;;;;;;;9.50;95.74;94586.47;5048122;28;20114;-88
2022/11/06 07:18:26;;;;;;;5.05;1.88;;;;;;;9.52;91.08;94585.16;5041062;28;20021;-88
2022/11/06 07:20:53;;;;;;;5.13;1.98;;;;;;;9.60;89.46;94574.22;5057633;28;20025;-88
2022/11/06 07:23:18;;;;;;;5.90;2.33;;;;;;;9.57;86.40;94587.03;5058917;28;20112;-87
2022/11/06 07:25:44;;;;;;;4.82;2.03;;;;;;;9.16;92.57;94585.00;5041222;28;20115;-87
2022/11/06 07:28:09;;;;;;;4.78;2.22;;;;;;;9.01;92.13;94594.31;5041101;28;20060;-87
2022/11/06 07:30:35;;;;;;;3.83;2.00;;;;;;;9.27;88.57;94596.28;5041042;28;20437;-87
2022/11/06 07:33:02;;;;;;;4.15;2.08;;;;;;;9.40;91.54;94584.59;5041040;28;20025;-87
2022/11/06 07:35:28;;;;;;;4.28;1.95;;;;;;;9.81;87.22;94595.22;5040962;28;20029;-87
2022/11/06 07:37:53;;;;;;;3.17;1.85;;;;;;;9.89;85.20;94596.56;5024539;28;20028;-87
2022/11/06 07:40:18;;;;;;;3.03;1.70;;;;;;;9.91;88.53;94599.72;5040411;28;20123;-87
2022/11/06 07:42:44;;;;;;;2.88;1.60;;;;;;;10.10;82.97;94607.09;5040859;28;20429;-87
2022/11/06 07:45:10;;;;;;;4.97;1.98;;;;;;;10.00;84.37;94606.03;5005671;28;20072;-86
2022/11/06 07:47:35;;;;;;;4.72;1.73;;;;;;;9.70;85.86;94599.63;5020601;28;20029;-87
2022/11/06 07:50:00;;;;;;;5.07;2.03;;;;;;;10.13;82.83;94606.59;5004815;28;20323;-87
2022/11/06 07:52:26;;;;;;;3.78;1.95;;;;;;;10.28;86.73;94611.84;5038120;28;20350;-88
2022/11/06 07:54:51;;;;;;;12.00;2.05;;;;;;;10.27;84.65;94615.53;5029785;28;20342;-88
2022/11/06 07:57:18;;;;;;;4.05;1.83;;;;;;;10.52;86.71;94610.59;5040663;28;20025;-87
2022/11/06 07:59:43;;;;;;;3.90;1.90;;;;;;;10.54;82.48;94611.94;5024263;28;20028;-87
2022/11/06 08:02:12;;;;;;;3.85;1.67;;;;;;;10.84;78.74;94617.47;5040093;28;20098;-87
2022/11/06 08:04:38;;;;;;;5.00;2.10;;;;;;;10.64;77.59;94621.63;5040187;28;20032;-87
2022/11/06 08:07:04;;;;;;;4.53;1.80;;;;;;;11.00;80.76;94621.66;5040356;28;20084;-87
2022/11/06 08:09:29;;;;;;;3.38;2.00;;;;;;;11.04;81.58;94619.28;5023679;28;20032;-88
2022/11/06 08:11:55;;;;;;;4.30;1.90;;;;;;;10.88;81.23;94627.13;5041127;28;20042;-88
2022/11/06 08:14:20;;;;;;;6.00;1.70;;;;;;;11.11;76.76;94626.88;5060179;28;20032;-88
2022/11/06 08:16:46;;;;;;;4.32;2.10;;;;;;;10.94;79.72;94621.91;5060082;28;20043;-88
2022/11/06 08:19:12;;;;;;;5.40;2.00;;;;;;;11.16;77.63;94629.50;5059958;28;20107;-87
2022/11/06 08:21:37;;;;;;;3.33;1.65;;;;;;;11.33;74.59;94623.94;5059550;28;20028;-87
2022/11/06 08:24:03;;;;;;;4.18;1.77;;;;;;;10.95;80.29;94621.63;5043665;28;20031;-88
2022/11/06 08:26:29;;;;;;;3.97;1.70;;;;;;;11.09;82.55;94631.59;5043215;28;20024;-87
2022/11/06 08:28:55;;;;;;;3.80;1.90;;;;;;;11.07;81.45;94624.00;5060126;28;20118;-88
2022/11/06 08:31:21;;;;;;;4.85;1.75;;;;;;;11.46;78.46;94622.63;5058942;28;20055;-88
2022/11/06 08:33:46;;;;;;;3.47;1.70;;;;;;;11.69;82.48;94613.38;5059833;28;20074;-88
2022/11/06 08:36:12;;;;;;;4.57;1.65;;;;;;;11.79;80.96;94624.91;5059756;28;20081;-88
2022/11/06 08:38:37;;;;;;;3.25;1.38;;;;;;;11.92;75.47;94613.84;5043370;28;20035;-85
2022/11/06 08:41:07;;;;;;;2.28;1.02;;;;;;;11.63;78.53;94624.16;5059159;28;20032;-88
2022/11/06 08:43:33;;;;;;;2.78;1.52;;;;;;;11.88;87.32;94613.59;5042229;28;20032;-86
2022/11/06 08:45:58;;;;;;;5.75;1.58;;;;;;;11.68;89.48;94618.88;5023490;28;20060;-88
2022/11/06 08:48:24;;;;;;;3.67;1.20;;;;;;;12.15;89.25;94609.81;5039812;28;20136;-88
2022/11/06 08:50:49;;;;;;;3.78;1.20;;;;;;;12.35;94.33;94604.72;5017219;28;20036;-87
2022/11/06 08:53:14;;;;;;;7.25;1.33;;;;;;;12.57;90.82;94604.31;5039530;28;20024;-86
2022/11/06 08:55:40;;;;;;;2.72;1.20;;;;;;;12.62;87.77;94612.16;5022968;28;20029;-85
2022/11/06 08:58:06;;;;;;;4.13;1.20;;;;;;;12.51;84.51;94611.44;5039701;28;20388;-85
2022/11/06 09:00:31;;;;;;;3.40;1.27;;;;;;;12.62;81.96;94612.16;5022547;28;20033;-86
2022/11/06 09:03:02;;;;;;;2.08;1.20;;;;;;;12.67;78.97;94608.72;5022794;28;20061;-84
2022/11/06 09:05:28;;;;;;;2.83;1.10;;;;;;;12.82;79.54;94611.22;5021985;28;20040;-83
2022/11/06 09:07:55;;;;;;;19.58;8.45;;;;;;;13.01;79.11;94608.72;5022952;28;20048;-84
2022/11/06 09:10:21;;;;;;;4.30;1.70;;;;;;;12.76;82.01;94611.53;5017308;28;20094;-84
2022/11/06 09:12:46;;;;;;;5.13;2.30;;;;;;;13.12;82.59;94613.88;5038824;28;20099;-84
2022/11/06 09:15:12;;;;;;;2.13;1.27;;;;;;;13.28;79.67;94615.31;5038809;28;20037;-84
2022/11/06 09:17:44;;;;;;;5.43;1.80;;;;;;;13.39;77.33;94612.56;5043644;28;20029;-86
2022/11/06 09:20:11;;;;;;;5.30;1.40;;;;;;;13.23;79.12;94622.47;5020711;28;20040;-87
2022/11/06 09:22:36;;;;;;;5.30;1.20;;;;;;;13.45;76.75;94615.97;5038795;28;20044;-86
2022/11/06 09:25:02;;;;;;;12.00;1.35;;;;;;;13.48;79.25;94616.19;5022512;28;20127;-86
2022/11/06 09:27:28;;;;;;;2.55;0.95;;;;;;;13.52;83.65;94616.44;5038654;28;20025;-86
2022/11/06 09:29:53;;;;;;;2.35;1.33;;;;;;;13.61;79.22;94614.72;5022426;28;20083;-86
2022/11/06 09:32:18;;;;;;;1.35;0.75;;;;;;;13.62;84.85;94612.91;5038513;28;20033;-87
2022/11/06 09:34:44;;;;;;;2.65;1.00;;;;;;;13.85;83.22;94613.97;5038933;28;20052;-87
2022/11/06 09:37:09;;;;;;;2.03;0.90;;;;;;;13.85;79.99;94611.31;5039184;28;20024;-86
2022/11/06 09:39:35;;;;;;;2.10;0.93;;;;;;;13.91;78.41;94614.69;5038641;28;20025;-86
2022/11/06 09:42:07;;;;;;;1.80;0.80;;;;;;;14.04;82.32;94607.94;5028906;28;20033;-86
2022/11/06 09:44:42;;;;;;;2.20;1.10;;;;;;;14.15;77.79;94606.75;5022630;28;20331;-83
2022/11/06 09:47:19;;;;;;;5.40;1.20;;;;;;;14.18;80.28;94598.25;5040526;28;20436;-86
2022/11/06 09:49:53;;;;;;;3.70;1.17;;;;;;;14.19;81.61;94601.69;5022768;28;20341;-87
2022/11/06 09:52:29;;;;;;;2.55;0.88;;;;;;;14.27;80.03;94604.47;5006607;28;20036;-86
2022/11/06 09:55:02;;;;;;;6.38;1.65;;;;;;;14.03;80.93;94607.16;5022775;28;20022;-86
2022/11/06 09:57:41;;;;;;;3.53;1.50;;;;;;;13.89;66.41;94601.78;5022568;28;20333;-86
2022/11/06 10:00:09;;;;;;;4.90;1.75;;;;;;;14.02;72.16;94600.31;5040199;28;20030;-86
2022/11/06 10:02:41;;;;;;;2.85;1.40;;;;;;;14.11;70.33;94603.09;5006605;28;20127;-86
2022/11/06 10:05:13;;;;;;;7.18;2.00;;;;;;;13.95;68.04;94597.25;5006189;28;20427;-86
2022/11/06 10:07:40;;;;;;;5.55;1.63;;;;;;;13.73;64.25;94595.94;5032560;28;20044;-85
2022/11/06 10:10:10;;;;;;;8.60;1.67;;;;;;;13.96;69.08;94593.53;5041934;28;20064;-84
2022/11/06 10:12:44;;;;;;;5.03;1.30;;;;;;;14.23;70.16;94600.84;5025705;28;20054;-84
2022/11/06 10:15:26;;;;;;;1.90;1.20;;;;;;;14.61;65.42;94604.53;5059671;28;20028;-84
2022/11/06 10:18:14;;;;;;;2.63;1.65;;;;;;;14.78;63.81;94596.13;5041848;28;20024;-84
2022/11/06 10:20:48;;;;;;;1.75;1.20;;;;;;;14.57;63.16;94591.91;5041942;28;20056;-84
2022/11/06 10:23:37;;;;;;;4.22;1.23;;;;;;;14.86;61.91;94586.78;5028917;28;20026;-84
2022/11/06 10:26:08;;;;;;;2.58;1.33;;;;;;;14.63;62.08;94587.34;5039697;28;20052;-84
2022/11/06 10:28:43;;;;;;;2.97;1.77;;;;;;;14.45;62.79;94573.13;5022086;28;20028;-84
2022/11/06 10:31:24;;;;;;;4.25;1.20;;;;;;;14.63;63.40;94586.56;5039340;28;20029;-84
2022/11/06 10:34:01;;;;;;;4.28;1.17;;;;;;;14.98;62.67;94579.97;5022171;28;20112;-85
2022/11/06 10:36:44;;;;;;;3.75;1.50;;;;;;;14.09;59.78;94581.53;5005863;28;20030;-86
2022/11/06 10:39:33;;;;;;;5.78;1.17;;;;;;;14.42;62.79;94576.34;5021918;28;20131;-87
2022/11/06 10:42:19;;;;;;;3.45;1.42;;;;;;;14.39;59.75;94567.13;5016762;28;20123;-86
2022/11/06 10:44:55;;;;;;;2.35;1.27;;;;;;;14.66;59.25;94572.81;5040606;28;20025;-85
2022/11/06 10:47:23;;;;;;;4.55;1.30;;;;;;;14.99;57.71;94567.56;5052071;28;20021;-86
2022/11/06 10:50:00;;;;;;;3.30;1.30;;;;;;;14.75;60.92;94568.47;5035453;28;20024;-84
2022/11/06 10:52:48;;;;;;;3.17;1.33;;;;;;;14.84;57.76;94563.31;5051795;28;20418;-85
2022/11/06 10:55:13;;;;;;;2.90;1.20;;;;;;;14.66;57.87;94559.66;5047617;28;20021;-88
2022/11/06 10:57:52;;;;;;;2.03;1.27;;;;;;;15.11;56.70;94559.97;5067917;28;20143;-86
2022/11/06 11:00:17;;;;;;;4.70;1.17;;;;;;;15.49;57.73;94564.31;5048600;28;20111;-87
2022/11/06 11:02:46;;;;;;;4.75;1.17;;;;;;;15.62;59.34;94560.09;5049522;28;20119;-87
2022/11/06 11:05:18;;;;;;;2.67;1.10;;;;;;;15.73;57.63;94557.25;5051180;28;20025;-88
2022/11/06 11:07:45;;;;;;;2.22;1.00;;;;;;;15.77;55.90;94555.59;5047270;28;20021;-88
2022/11/06 11:10:23;;;;;;;3.38;1.40;;;;;;;15.86;54.47;94548.53;5034097;28;20043;-88
2022/11/06 11:12:49;;;;;;;2.47;1.00;;;;;;;15.79;56.35;94551.56;5050630;28;20074;-86
2022/11/06 11:15:18;;;;;;;3.03;1.17;;;;;;;15.41;56.12;94536.72;5033272;28;20017;-85
2022/11/06 11:18:12;;;;;;;2.17;1.20;;;;;;;15.54;54.44;94537.78;5047023;28;20040;-89
2022/11/06 11:20:38;;;;;;;;;;;;;;;15.55;53.62;94539.34;5068450;28;20090;-85
2022/11/06 11:23:23;;;;;;;6.30;1.33;;;;;;;15.82;51.42;94542.28;5031327;28;20221;-86
2022/11/06 11:25:51;;;;;;;4.85;0.98;;;;;;;16.08;53.19;94541.78;5051996;28;20028;-86
2022/11/06 11:28:24;;;;;;;6.25;1.42;;;;;;;16.18;52.82;94538.13;5032916;28;20025;-88
2022/11/06 11:31:02;;;;;;;3.58;1.20;;;;;;;15.21;52.67;94545.03;5045122;28;20110;-87
2022/11/06 11:33:27;;;;;;;3.80;1.10;;;;;;;15.25;50.04;94546.78;5029494;28;20032;-87
2022/11/06 11:35:54;;;;;;;1.25;0.90;;;;;;;15.65;49.57;94542.88;5053781;28;20024;-87
2022/11/06 11:38:21;;;;;;;1.67;0.90;;;;;;;15.76;50.73;94540.81;5049536;28;20142;-85
2022/11/06 11:40:47;;;;;;;2.20;1.05;;;;;;;15.59;54.71;94539.56;5035271;28;20451;-84
2022/11/06 11:43:29;;;;;;;1.05;0.73;;;;;;;15.77;50.62;94539.72;5035238;28;20430;-85
2022/11/06 11:46:06;;;;;;;2.30;0.88;;;;;;;15.34;50.04;94548.75;5033079;28;20025;-86
2022/11/06 11:48:47;;;;;;;1.75;0.85;;;;;;;15.71;49.48;94538.28;5050144;28;20311;-86
2022/11/06 11:51:27;;;;;;;5.40;1.00;;;;;;;16.10;50.44;94542.25;5048301;28;20103;-85
2022/11/06 11:54:13;;;;;;;2.65;1.00;;;;;;;16.33;50.04;94537.78;5066614;28;20052;-85
2022/11/06 11:56:54;;;;;;;2.88;1.20;;;;;;;16.04;52.24;94543.44;5050355;28;20071;-84
2022/11/06 11:59:24;;;;;;;3.50;0.90;;;;;;;15.44;49.59;94538.00;5033636;28;20024;-85
2022/11/06 12:01:49;;;;;;;4.95;0.80;;;;;;;15.28;49.27;94534.88;5030023;28;20098;-85
2022/11/06 12:04:41;;;;;;;1.92;1.00;;;;;;;15.35;50.29;94531.84;5024105;28;20059;-86
2022/11/06 12:07:13;;;;;;;3.67;1.10;;;;;;;15.53;51.26;94523.03;5053570;28;20041;-86
2022/11/06 12:09:43;;;;;;;2.03;0.95;;;;;;;15.97;52.00;94526.13;5039904;28;20043;-85
2022/11/06 12:12:30;;;;;;;2.80;0.90;;;;;;;16.00;49.38;94523.97;5039413;28;20032;-86
2022/11/06 12:15:20;;;;;;;1.80;1.08;;;;;;;16.00;51.82;94508.91;5023461;28;20036;-85
2022/11/06 12:17:52;;;;;;;4.43;1.30;;;;;;;15.98;53.33;94505.78;5039787;28;20460;-84
2022/11/06 12:20:22;;;;;;;2.63;1.08;;;;;;;16.30;51.69;94509.31;5023129;28;20036;-86